createdAt,value
2018-07-24T00:00:23.467Z,23.57
2018-07-24T00:01:37.972Z,23.62
2018-07-24T00:02:52.721Z,23.68
2018-07-24T00:04:07.006Z,23.73
2018-07-24T00:05:21.494Z,23.78
2018-07-24T00:06:36.671Z,23.81
2018-07-24T00:07:50.914Z,23.84
2018-07-24T00:09:05.655Z,23.88
2018-07-24T00:10:20.476Z,23.92
2018-07-24T00:11:34.893Z,23.95
2018-07-24T00:12:49.374Z,23.97
2018-07-24T00:14:03.888Z,23.98
2018-07-24T00:15:18.649Z,24
2018-07-24T00:16:32.952Z,24.01
2018-07-24T00:17:47.469Z,24.01
2018-07-24T00:19:01.697Z,24.02
2018-07-24T00:20:16.007Z,24.01
2018-07-24T00:21:30.485Z,24.02
2018-07-24T00:22:44.947Z,24.01
2018-07-24T00:23:59.690Z,24.01
2018-07-24T00:25:13.926Z,24.01
2018-07-24T00:26:28.243Z,24.02
2018-07-24T00:27:42.241Z,24.01
2018-07-24T00:28:56.457Z,24.03
2018-07-24T00:30:11.235Z,24.04
2018-07-24T00:31:26.296Z,24.05
2018-07-24T00:32:40.816Z,24.07
2018-07-24T00:33:54.788Z,24.09
2018-07-24T00:35:09.247Z,24.1
2018-07-24T00:36:23.763Z,24.11
2018-07-24T00:37:38.540Z,24.13
2018-07-24T00:38:53.275Z,24.14
2018-07-24T00:40:06.715Z,24.13
2018-07-24T00:41:21.704Z,24.13
2018-07-24T00:42:36.236Z,24.13
2018-07-24T00:43:50.733Z,24.11
2018-07-24T00:45:05.164Z,24.07
2018-07-24T00:46:20.129Z,24.02
2018-07-24T00:47:34.403Z,23.97
2018-07-24T00:48:49.540Z,23.92
2018-07-24T00:50:03.568Z,23.88
2018-07-24T00:51:18.090Z,23.86
2018-07-24T00:52:32.914Z,23.85
2018-07-24T00:53:47.188Z,23.83
2018-07-24T00:55:01.417Z,23.83
2018-07-24T00:56:15.663Z,23.83
2018-07-24T00:57:29.866Z,23.82
2018-07-24T00:58:44.332Z,23.8
2018-07-24T00:59:59.084Z,23.8
2018-07-24T01:01:13.845Z,23.78
2018-07-24T01:02:27.501Z,23.78
2018-07-24T01:03:41.733Z,23.76
2018-07-24T01:04:56.222Z,23.75
2018-07-24T01:06:10.677Z,23.74
2018-07-24T01:07:25.719Z,23.72
2018-07-24T01:08:40.924Z,23.7
2018-07-24T01:09:55.326Z,23.68
2018-07-24T01:11:09.607Z,23.67
2018-07-24T01:12:23.577Z,23.67
2018-07-24T01:13:38.044Z,23.66
2018-07-24T01:14:52.275Z,23.65
2018-07-24T01:16:07.295Z,23.63
2018-07-24T01:17:21.713Z,23.62
2018-07-24T01:18:36.702Z,23.59
2018-07-24T01:19:51.297Z,23.58
2018-07-24T01:21:05.279Z,23.57
2018-07-24T01:22:19.705Z,23.55
2018-07-24T01:23:34.403Z,23.52
2018-07-24T01:24:49.333Z,23.48
2018-07-24T01:26:04.001Z,23.45
2018-07-24T01:27:17.934Z,23.43
2018-07-24T01:28:32.104Z,23.4
2018-07-24T01:29:46.279Z,23.39
2018-07-24T01:31:00.463Z,23.35
2018-07-24T01:32:14.621Z,23.31
2018-07-24T01:33:29.272Z,23.27
2018-07-24T01:34:44.019Z,23.25
2018-07-24T01:35:58.445Z,23.21
2018-07-24T01:37:12.647Z,23.16
2018-07-24T01:38:27.068Z,23.11
2018-07-24T01:39:41.904Z,23.08
2018-07-24T01:40:57.143Z,23.05
2018-07-24T01:42:12.087Z,23.04
2018-07-24T01:43:26.280Z,23
2018-07-24T01:44:41.166Z,22.95
2018-07-24T01:45:55.394Z,22.92
2018-07-24T01:47:09.316Z,22.91
2018-07-24T01:48:23.499Z,22.9
2018-07-24T01:49:38.152Z,22.89
2018-07-24T01:50:53.070Z,22.89
2018-07-24T01:52:07.266Z,22.88
2018-07-24T01:53:21.456Z,22.89
2018-07-24T01:54:36.123Z,22.89
2018-07-24T01:55:50.566Z,22.91
2018-07-24T01:57:04.718Z,22.89
2018-07-24T01:58:19.152Z,22.88
2018-07-24T01:59:33.842Z,22.88
2018-07-24T02:00:48.293Z,22.88
2018-07-24T02:02:02.224Z,22.85
2018-07-24T02:03:16.969Z,22.84
2018-07-24T02:04:30.659Z,22.84
2018-07-24T02:05:45.384Z,22.83
2018-07-24T02:06:59.817Z,22.84
2018-07-24T02:08:14.309Z,22.85
2018-07-24T02:09:28.230Z,22.86
2018-07-24T02:10:42.947Z,22.86
2018-07-24T02:11:57.341Z,22.86
2018-07-24T02:13:11.276Z,22.86
2018-07-24T02:14:26.610Z,22.85
2018-07-24T02:15:41.349Z,22.82
2018-07-24T02:16:56.050Z,22.8
2018-07-24T02:18:10.197Z,22.75
2018-07-24T02:19:24.844Z,22.72
2018-07-24T02:20:39.937Z,22.72
2018-07-24T02:21:54.380Z,22.72
2018-07-24T02:23:09.041Z,22.71
2018-07-24T02:24:23.737Z,22.7
2018-07-24T02:25:38.341Z,22.7
2018-07-24T02:26:53.282Z,22.68
2018-07-24T02:28:07.506Z,22.67
2018-07-24T02:29:21.932Z,22.67
2018-07-24T02:30:36.615Z,22.68
2018-07-24T02:31:50.608Z,22.69
2018-07-24T02:33:05.053Z,22.69
2018-07-24T02:34:19.511Z,22.69
2018-07-24T02:35:34.251Z,22.68
2018-07-24T02:36:47.914Z,22.68
2018-07-24T02:38:02.862Z,22.68
2018-07-24T02:39:17.527Z,22.69
2018-07-24T02:40:32.237Z,22.71
2018-07-24T02:41:46.904Z,22.72
2018-07-24T02:43:01.107Z,22.71
2018-07-24T02:44:15.571Z,22.71
2018-07-24T02:45:30.029Z,22.73
2018-07-24T02:46:44.772Z,22.73
2018-07-24T02:47:58.958Z,22.74
2018-07-24T02:49:13.397Z,22.73
2018-07-24T02:50:28.273Z,22.72
2018-07-24T02:51:42.452Z,22.71
2018-07-24T02:52:56.906Z,22.7
2018-07-24T02:54:11.372Z,22.69
2018-07-24T02:55:25.833Z,22.68
2018-07-24T02:56:40.775Z,22.63
2018-07-24T02:57:55.721Z,22.53
2018-07-24T02:59:10.134Z,22.42
2018-07-24T03:00:25.101Z,22.33
2018-07-24T03:01:39.642Z,22.21
2018-07-24T03:02:53.826Z,22.1
2018-07-24T03:04:08.277Z,22.02
2018-07-24T03:05:22.194Z,21.94
2018-07-24T03:06:36.541Z,21.9
2018-07-24T03:07:51.201Z,21.89
2018-07-24T03:09:06.139Z,21.88
2018-07-24T03:10:20.635Z,21.87
2018-07-24T03:11:35.058Z,21.86
2018-07-24T03:12:49.748Z,21.87
2018-07-24T03:14:04.177Z,21.83
2018-07-24T03:15:18.335Z,21.8
2018-07-24T03:16:32.757Z,21.76
2018-07-24T03:17:47.522Z,21.73
2018-07-24T03:19:02.474Z,21.74
2018-07-24T03:24:43.520Z,21.85
2018-07-24T03:25:57.870Z,21.86
2018-07-24T03:27:13.015Z,21.86
2018-07-24T03:28:26.710Z,21.87
2018-07-24T03:29:41.215Z,21.88
2018-07-24T03:30:55.742Z,21.9
2018-07-24T03:32:10.479Z,21.94
2018-07-24T03:33:25.187Z,21.97
2018-07-24T03:34:40.799Z,22
2018-07-24T03:35:55.263Z,22.03
2018-07-24T03:37:09.699Z,22.03
2018-07-24T03:38:23.905Z,22.03
2018-07-24T03:39:37.932Z,22.03
2018-07-24T03:40:52.342Z,22.04
2018-07-24T03:42:06.518Z,22.06
2018-07-24T03:43:21.416Z,22.07
2018-07-24T03:44:35.064Z,22.08
2018-07-24T03:45:49.987Z,22.09
2018-07-24T03:47:04.395Z,22.1
2018-07-24T03:48:18.542Z,22.11
2018-07-24T03:49:33.198Z,22.11
2018-07-24T03:50:47.866Z,22.13
2018-07-24T03:52:02.777Z,22.15
2018-07-24T03:53:17.367Z,22.17
2018-07-24T03:54:31.562Z,22.2
2018-07-24T03:55:46.008Z,22.23
2018-07-24T03:57:00.716Z,22.25
2018-07-24T03:58:15.378Z,22.28
2018-07-24T03:59:29.793Z,22.3
2018-07-24T04:00:44.209Z,22.3
2018-07-24T04:01:58.896Z,22.32
2018-07-24T04:03:13.097Z,22.33
2018-07-24T04:04:27.722Z,22.35
2018-07-24T04:05:42.039Z,22.44
2018-07-24T04:06:56.776Z,22.61
2018-07-24T04:08:10.508Z,22.8
2018-07-24T04:09:25.171Z,23.06
2018-07-24T04:10:38.826Z,23.35
2018-07-24T04:11:52.995Z,23.65
2018-07-24T04:13:07.423Z,23.92
2018-07-24T04:14:22.262Z,24.18
2018-07-24T04:15:36.710Z,24.47
2018-07-24T04:16:51.649Z,24.76
2018-07-24T04:18:06.359Z,25.05
2018-07-24T04:19:20.453Z,25.33
2018-07-24T04:20:34.930Z,25.64
2018-07-24T04:21:49.911Z,25.96
2018-07-24T04:23:04.566Z,26.29
2018-07-24T04:24:19.351Z,26.61
2018-07-24T04:25:33.562Z,26.93
2018-07-24T04:26:47.493Z,27.24
2018-07-24T04:28:01.425Z,27.54
2018-07-24T04:29:15.858Z,27.87
2018-07-24T04:30:30.534Z,28.18
2018-07-24T04:31:45.583Z,28.5
2018-07-24T04:33:00.256Z,28.78
2018-07-24T04:34:14.690Z,29.07
2018-07-24T04:35:29.653Z,29.37
2018-07-24T04:36:43.785Z,29.68
2018-07-24T04:37:58.748Z,30.01
2018-07-24T04:39:13.436Z,30.36
2018-07-24T04:40:28.554Z,30.64
2018-07-24T04:41:43.500Z,30.68
2018-07-24T04:42:57.705Z,30.87
2018-07-24T04:44:11.643Z,31.33
2018-07-24T04:45:25.692Z,31.74
2018-07-24T04:46:39.851Z,32.12
2018-07-24T04:47:54.258Z,32.47
2018-07-24T04:49:08.207Z,32.81
2018-07-24T04:50:22.810Z,33.14
2018-07-24T04:51:37.286Z,33.46
2018-07-24T04:52:51.723Z,33.74
2018-07-24T04:54:06.441Z,34.03
2018-07-24T04:55:20.912Z,34.3
2018-07-24T04:56:35.669Z,34.55
2018-07-24T04:57:50.337Z,34.77
2018-07-24T04:59:04.574Z,35
2018-07-24T05:00:19.021Z,35.25
2018-07-24T05:01:33.622Z,35.47
2018-07-24T05:02:48.073Z,35.67
2018-07-24T05:04:03.062Z,35.86
2018-07-24T05:05:17.315Z,36.14
2018-07-24T05:06:31.791Z,36.41
2018-07-24T05:07:46.569Z,36.7
2018-07-24T05:09:01.543Z,37
2018-07-24T05:10:16.554Z,37.27
2018-07-24T05:11:31.232Z,37.57
2018-07-24T05:12:45.190Z,37.87
2018-07-24T05:14:00.205Z,38.22
2018-07-24T05:15:14.412Z,38.5
2018-07-24T05:16:28.130Z,38.72
2018-07-24T05:17:42.432Z,39.06
2018-07-24T05:18:56.832Z,39.42
2018-07-24T05:20:10.999Z,39.72
2018-07-24T05:21:25.590Z,39.96
2018-07-24T05:22:40.303Z,40.2
2018-07-24T05:23:54.473Z,40.41
2018-07-24T05:25:09.153Z,40.6
2018-07-24T05:26:24.314Z,40.84
2018-07-24T05:27:39.317Z,41.07
2018-07-24T05:28:53.547Z,41.29
2018-07-24T05:30:08.276Z,41.52
2018-07-24T05:31:22.774Z,41.72
2018-07-24T05:32:37.248Z,41.66
2018-07-24T05:33:51.950Z,40.37
2018-07-24T05:35:06.177Z,38.57
2018-07-24T05:36:20.415Z,37.27
2018-07-24T05:37:34.703Z,36.25
2018-07-24T05:38:49.618Z,35.37
2018-07-24T05:40:03.954Z,34.64
2018-07-24T05:41:18.922Z,33.98
2018-07-24T05:42:34.226Z,33.35
2018-07-24T05:43:48.904Z,32.84
2018-07-24T05:45:03.123Z,32.37
2018-07-24T05:46:17.773Z,31.91
2018-07-24T05:47:32.540Z,31.51
2018-07-24T05:48:47.035Z,31.19
2018-07-24T05:50:02.457Z,30.92
2018-07-24T05:51:16.977Z,30.7
2018-07-24T05:52:32.013Z,30.49
2018-07-24T05:53:46.439Z,30.27
2018-07-24T05:55:00.682Z,30.03
2018-07-24T05:56:16.126Z,29.79
2018-07-24T05:57:31.021Z,29.6
2018-07-24T05:58:45.926Z,29.45
2018-07-24T06:00:00.369Z,29.34
2018-07-24T06:01:15.035Z,29.18
2018-07-24T06:02:29.225Z,29.03
2018-07-24T06:03:44.052Z,28.86
2018-07-24T06:04:58.508Z,28.73
2018-07-24T06:06:13.032Z,28.62
2018-07-24T06:07:27.920Z,28.53
2018-07-24T06:08:41.709Z,28.49
2018-07-24T06:09:56.654Z,28.47
2018-07-24T06:11:11.350Z,28.46
2018-07-24T06:12:26.008Z,28.44
2018-07-24T06:13:40.024Z,28.44
2018-07-24T06:14:54.198Z,28.4
2018-07-24T06:16:08.395Z,28.39
2018-07-24T06:17:22.897Z,28.4
2018-07-24T06:18:37.687Z,28.4
2018-07-24T06:19:52.129Z,28.4
2018-07-24T06:21:06.855Z,28.43
2018-07-24T06:22:21.549Z,28.44
2018-07-24T06:23:36.640Z,28.44
2018-07-24T06:24:51.991Z,28.42
2018-07-24T06:26:06.704Z,28.38
2018-07-24T06:27:20.909Z,28.34
2018-07-24T06:28:35.776Z,28.28
2018-07-24T06:29:50.473Z,28.23
2018-07-24T06:31:05.618Z,28.2
2018-07-24T06:32:20.572Z,28.18
2018-07-24T06:33:35.375Z,28.14
2018-07-24T06:34:49.875Z,28.1
2018-07-24T06:36:04.557Z,28.06
2018-07-24T06:37:19.259Z,28.04
2018-07-24T06:38:33.714Z,28.06
2018-07-24T06:39:48.360Z,28.06
2018-07-24T06:41:02.319Z,28.06
2018-07-24T06:42:16.273Z,28.07
2018-07-24T06:43:30.743Z,28.06
2018-07-24T06:44:45.600Z,28.04
2018-07-24T06:46:00.287Z,28.02
2018-07-24T06:47:15.253Z,28.01
2018-07-24T06:48:30.152Z,28.04
2018-07-24T06:49:44.981Z,28.06
2018-07-24T06:50:59.652Z,28.08
2018-07-24T06:52:13.674Z,28.1
2018-07-24T06:53:27.871Z,28.12
2018-07-24T06:54:42.357Z,28.17
2018-07-24T06:55:56.562Z,28.19
2018-07-24T06:57:11.256Z,28.19
2018-07-24T06:58:26.030Z,28.2
2018-07-24T06:59:40.774Z,28.19
2018-07-24T07:00:55.477Z,28.19
2018-07-24T07:02:10.375Z,28.2
2018-07-24T07:03:25.139Z,28.23
2018-07-24T07:04:39.776Z,28.26
2018-07-24T07:05:54.537Z,28.27
2018-07-24T07:07:09.252Z,28.29
2018-07-24T07:08:23.679Z,28.29
2018-07-24T07:09:38.270Z,28.31
2018-07-24T07:10:53.220Z,28.32
2018-07-24T07:12:07.660Z,28.33
2018-07-24T07:13:22.218Z,28.34
2018-07-24T07:14:36.983Z,28.36
2018-07-24T07:15:51.834Z,28.38
2018-07-24T07:17:06.552Z,28.38
2018-07-24T07:18:21.546Z,28.39
2018-07-24T07:19:35.510Z,28.44
2018-07-24T07:20:49.579Z,28.48
2018-07-24T07:22:03.982Z,28.52
2018-07-24T07:23:18.023Z,28.54
2018-07-24T07:24:33.188Z,28.55
2018-07-24T07:25:47.791Z,28.57
2018-07-24T07:27:02.427Z,28.6
2018-07-24T07:28:17.161Z,28.63
2018-07-24T07:29:31.084Z,28.64
2018-07-24T07:30:45.809Z,28.65
2018-07-24T07:31:59.521Z,28.67
2018-07-24T07:33:14.404Z,28.69
2018-07-24T07:34:29.136Z,28.71
2018-07-24T07:35:43.689Z,28.75
2018-07-24T07:36:58.381Z,28.75
2018-07-24T07:38:12.349Z,28.76
2018-07-24T07:39:27.048Z,28.79
2018-07-24T07:40:41.563Z,28.81
2018-07-24T07:41:56.815Z,28.86
2018-07-24T07:43:11.952Z,28.9
2018-07-24T07:44:26.442Z,28.92
2018-07-24T07:45:40.965Z,28.96
2018-07-24T07:46:55.224Z,28.97
2018-07-24T07:48:09.974Z,29
2018-07-24T07:49:24.260Z,29.02
2018-07-24T07:50:38.948Z,29.03
2018-07-24T07:52:08.025Z,29.04
2018-07-24T07:53:22.856Z,29.06
2018-07-24T07:54:37.111Z,29.08
2018-07-24T07:55:51.622Z,29.09
2018-07-24T07:57:06.095Z,29.12
2018-07-24T07:58:21.082Z,29.14
2018-07-24T07:59:35.542Z,29.17
2018-07-24T08:00:49.821Z,29.18
2018-07-24T08:02:04.506Z,29.2
2018-07-24T08:03:18.984Z,29.2
2018-07-24T08:04:33.456Z,29.2
2018-07-24T08:05:47.909Z,29.24
2018-07-24T08:07:02.219Z,29.27
2018-07-24T08:08:16.714Z,29.28
2018-07-24T08:09:31.440Z,29.29
2018-07-24T08:10:45.671Z,29.32
2018-07-24T08:12:00.528Z,29.34
2018-07-24T08:13:14.489Z,29.36
2018-07-24T08:14:28.459Z,29.4
2018-07-24T08:15:42.660Z,29.42
2018-07-24T08:16:57.460Z,29.44
2018-07-24T08:18:11.947Z,29.46
2018-07-24T08:19:26.919Z,29.48
2018-07-24T08:20:41.554Z,29.5
2018-07-24T08:21:56.423Z,29.53
2018-07-24T08:23:11.189Z,29.58
2018-07-24T08:24:25.642Z,29.6
2018-07-24T08:25:39.841Z,29.63
2018-07-24T08:26:54.205Z,29.66
2018-07-24T08:28:08.357Z,29.68
2018-07-24T08:29:23.071Z,29.69
2018-07-24T08:30:37.775Z,29.69
2018-07-24T08:31:53.080Z,29.71
2018-07-24T08:33:07.791Z,29.75
2018-07-24T08:34:22.514Z,29.78
2018-07-24T08:35:36.991Z,29.82
2018-07-24T08:36:51.671Z,29.84
2018-07-24T08:38:06.663Z,29.85
2018-07-24T08:39:21.155Z,29.87
2018-07-24T08:40:35.361Z,29.9
2018-07-24T08:41:49.809Z,29.96
2018-07-24T08:43:04.278Z,29.98
2018-07-24T08:44:18.748Z,30
2018-07-24T08:45:33.473Z,30.02
2018-07-24T08:46:47.428Z,30.03
2018-07-24T08:48:02.142Z,30.07
2018-07-24T08:49:16.417Z,30.11
2018-07-24T08:50:30.956Z,30.17
2018-07-24T08:51:45.461Z,30.2
2018-07-24T08:53:00.176Z,30.21
2018-07-24T08:54:16.108Z,30.25
2018-07-24T08:55:30.482Z,30.27
2018-07-24T08:56:46.908Z,30.32
2018-07-24T08:58:01.447Z,30.35
2018-07-24T08:59:16.384Z,30.38
2018-07-24T09:00:31.420Z,30.41
2018-07-24T09:01:46.284Z,30.43
2018-07-24T09:03:00.693Z,30.44
2018-07-24T09:04:15.630Z,30.48
2018-07-24T09:05:30.909Z,30.51
2018-07-24T09:06:44.849Z,30.53
2018-07-24T09:08:00.120Z,30.56
2018-07-24T09:09:14.593Z,30.58
2018-07-24T09:10:29.057Z,30.6
2018-07-24T09:11:43.541Z,30.64
2018-07-24T09:12:58.730Z,30.66
2018-07-24T09:14:13.254Z,30.69
2018-07-24T09:15:27.489Z,30.72
2018-07-24T09:16:41.978Z,30.75
2018-07-24T09:17:56.482Z,30.79
2018-07-24T09:19:11.217Z,30.84
2018-07-24T09:20:25.927Z,30.91
2018-07-24T09:21:40.656Z,30.95
2018-07-24T09:22:54.871Z,31.01
2018-07-24T09:24:09.559Z,31.06
2018-07-24T09:25:24.038Z,31.11
2018-07-24T09:26:38.763Z,31.15
2018-07-24T09:27:52.958Z,31.15
2018-07-24T09:29:07.167Z,31.18
2018-07-24T09:30:21.358Z,31.2
2018-07-24T09:31:35.638Z,31.23
2018-07-24T09:32:50.080Z,31.25
2018-07-24T09:34:04.852Z,31.27
2018-07-24T09:35:19.572Z,31.31
2018-07-24T09:36:33.805Z,31.33
2018-07-24T09:37:48.545Z,31.34
2018-07-24T09:39:03.312Z,31.37
2018-07-24T09:40:18.028Z,31.4
2018-07-24T09:41:32.669Z,31.45
2018-07-24T09:42:46.904Z,31.5
2018-07-24T09:44:01.409Z,31.53
2018-07-24T09:45:15.652Z,31.58
2018-07-24T09:46:29.666Z,31.63
2018-07-24T09:47:44.648Z,31.67
2018-07-24T09:48:58.672Z,31.69
2018-07-24T09:50:13.185Z,31.7
2018-07-24T09:51:27.959Z,31.73
2018-07-24T09:52:42.656Z,31.75
2018-07-24T09:53:57.101Z,31.78
2018-07-24T09:55:12.126Z,31.8
2018-07-24T09:56:26.943Z,31.82
2018-07-24T09:57:41.815Z,31.87
2018-07-24T09:58:56.481Z,31.88
2018-07-24T10:00:11.593Z,31.88
2018-07-24T10:01:26.315Z,31.88
2018-07-24T10:02:40.804Z,31.9
2018-07-24T10:03:55.277Z,31.95
2018-07-24T10:11:48.485Z,32.04
2018-07-24T10:13:03.210Z,32.02
2018-07-24T10:14:18.492Z,32.01
2018-07-24T10:15:33.011Z,32.01
2018-07-24T10:16:48.002Z,31.99
2018-07-24T10:18:02.477Z,31.99
2018-07-24T10:19:16.210Z,31.98
2018-07-24T10:20:30.450Z,31.97
2018-07-24T10:21:44.644Z,31.99
2018-07-24T10:22:59.013Z,32
2018-07-24T10:24:13.256Z,32.02
2018-07-24T10:25:27.930Z,32.05
2018-07-24T10:26:42.663Z,32.1
2018-07-24T10:27:57.445Z,32.13
2018-07-24T10:29:11.686Z,32.15
2018-07-24T10:30:26.477Z,32.19
2018-07-24T10:31:41.744Z,32.22
2018-07-24T10:32:56.074Z,32.25
2018-07-24T10:34:10.716Z,32.29
2018-07-24T10:35:25.489Z,32.24
2018-07-24T10:36:40.714Z,32.23
2018-07-24T10:37:55.171Z,32.24
2018-07-24T10:39:10.097Z,32.23
2018-07-24T10:40:24.814Z,32.25
2018-07-24T10:41:39.571Z,32.27
2018-07-24T10:42:54.334Z,32.26
2018-07-24T10:44:09.317Z,32.27
2018-07-24T10:45:23.826Z,32.28
2018-07-24T10:46:38.016Z,32.3
2018-07-24T10:47:52.814Z,32.31
2018-07-24T10:49:07.085Z,32.33
2018-07-24T10:50:21.567Z,32.38
2018-07-24T10:51:36.269Z,32.45
2018-07-24T10:52:50.784Z,32.5
2018-07-24T10:54:05.776Z,32.56
2018-07-24T10:55:20.547Z,32.57
2018-07-24T10:56:35.031Z,32.55
2018-07-24T10:57:49.802Z,32.53
2018-07-24T10:59:04.651Z,32.49
2018-07-24T11:00:19.831Z,32.48
2018-07-24T11:01:34.565Z,32.5
2018-07-24T11:02:48.543Z,32.48
2018-07-24T11:04:03.397Z,32.48
2018-07-24T11:05:18.133Z,32.5
2018-07-24T11:06:33.444Z,32.5
2018-07-24T11:07:47.884Z,32.52
2018-07-24T11:09:02.708Z,32.51
2018-07-24T11:10:17.426Z,32.49
2018-07-24T11:11:32.145Z,32.44
2018-07-24T11:12:46.615Z,32.41
2018-07-24T11:14:01.491Z,32.41
2018-07-24T11:15:16.222Z,32.43
2018-07-24T11:16:31.113Z,32.42
2018-07-24T11:17:46.273Z,32.44
2018-07-24T11:19:00.903Z,32.45
2018-07-24T11:20:15.143Z,32.47
2018-07-24T11:21:29.893Z,32.49
2018-07-24T11:22:45.287Z,32.5
2018-07-24T11:24:02.125Z,32.5
2018-07-24T11:25:16.857Z,32.53
2018-07-24T11:26:31.071Z,32.55
2018-07-24T11:27:45.773Z,32.58
2018-07-24T11:29:01.012Z,32.57
2018-07-24T11:30:15.924Z,32.57
2018-07-24T11:31:31.363Z,32.59
2018-07-24T11:32:45.833Z,32.58
2018-07-24T11:34:00.660Z,32.59
2018-07-24T11:35:14.628Z,32.63
2018-07-24T11:36:29.784Z,32.68
2018-07-24T11:37:44.507Z,32.75
2018-07-24T11:38:59.251Z,32.83
2018-07-24T11:40:13.300Z,32.82
2018-07-24T11:41:28.006Z,32.87
2018-07-24T11:42:42.762Z,32.92
2018-07-24T11:43:57.331Z,32.93
2018-07-24T11:45:12.838Z,32.91
2018-07-24T11:46:27.845Z,32.84
2018-07-24T11:47:42.834Z,32.8
2018-07-24T11:48:57.301Z,32.79
2018-07-24T11:50:11.842Z,32.75
2018-07-24T11:51:25.894Z,32.71
2018-07-24T11:52:40.456Z,32.67
2018-07-24T11:53:55.478Z,32.65
2018-07-24T11:55:10.554Z,32.66
2018-07-24T11:56:25.570Z,32.69
2018-07-24T11:57:39.822Z,32.72
2018-07-24T11:58:54.760Z,32.75
2018-07-24T12:00:09.522Z,32.81
2018-07-24T12:01:24.278Z,32.86
2018-07-24T12:02:38.990Z,32.93
2018-07-24T12:03:53.420Z,32.98
2018-07-24T12:05:08.150Z,33.03
2018-07-24T12:06:22.603Z,33.04
2018-07-24T12:07:37.303Z,33.1
2018-07-24T12:08:51.941Z,33.15
2018-07-24T12:10:06.365Z,33.16
2018-07-24T12:11:21.103Z,33.11
2018-07-24T12:12:35.742Z,33.08
2018-07-24T12:13:50.708Z,33.04
2018-07-24T12:15:04.994Z,33.05
2018-07-24T12:16:19.921Z,33.06
2018-07-24T12:17:34.617Z,33.05
2018-07-24T12:18:48.837Z,33.07
2018-07-24T12:20:03.318Z,33.09
2018-07-24T12:21:18.087Z,33.11
2018-07-24T12:22:32.598Z,33.19
2018-07-24T12:23:47.081Z,33.26
2018-07-24T12:25:02.068Z,33.34
2018-07-24T12:26:16.652Z,33.38
2018-07-24T12:27:31.415Z,33.41
2018-07-24T12:28:45.656Z,33.44
2018-07-24T12:30:00.575Z,33.45
2018-07-24T12:31:15.723Z,33.46
2018-07-24T12:32:30.007Z,33.53
2018-07-24T12:33:45.017Z,33.57
2018-07-24T12:34:59.007Z,33.62
2018-07-24T12:36:13.843Z,33.66
2018-07-24T12:37:29.011Z,33.71
2018-07-24T12:38:44.229Z,33.75
2018-07-24T12:39:58.751Z,33.78
2018-07-24T12:41:13.331Z,33.82
2018-07-24T12:42:28.207Z,33.87
2018-07-24T12:43:43.255Z,33.92
2018-07-24T12:44:58.096Z,33.98
2018-07-24T12:46:12.712Z,34.05
2018-07-24T12:47:27.196Z,34.09
2018-07-24T12:48:41.765Z,34.09
2018-07-24T12:49:56.525Z,34.09
2018-07-24T12:51:11.505Z,34.11
2018-07-24T12:52:26.626Z,34.12
2018-07-24T12:53:41.829Z,34.13
2018-07-24T12:54:56.289Z,34.15
2018-07-24T12:56:10.798Z,34.15
2018-07-24T12:57:25.645Z,34.13
2018-07-24T12:58:40.634Z,34.11
2018-07-24T12:59:54.894Z,34.11
2018-07-24T13:01:09.618Z,34.07
2018-07-24T13:02:24.815Z,34.04
2018-07-24T13:03:39.578Z,34.02
2018-07-24T13:04:53.602Z,34.01
2018-07-24T13:06:08.233Z,33.99
2018-07-24T13:07:23.238Z,33.99
2018-07-24T13:08:37.722Z,34.01
2018-07-24T13:09:52.943Z,34.04
2018-07-24T13:11:08.085Z,34.05
2018-07-24T13:12:22.882Z,34.04
2018-07-24T13:13:37.377Z,34.05
2018-07-24T13:14:52.381Z,34.09
2018-07-24T13:16:07.086Z,34.16
2018-07-24T13:17:21.640Z,34.22
2018-07-24T13:18:35.880Z,34.3
2018-07-24T13:19:50.645Z,34.36
2018-07-24T13:21:05.103Z,34.42
2018-07-24T13:22:18.800Z,34.43
2018-07-24T13:23:33.294Z,34.42
2018-07-24T13:24:47.493Z,34.4
2018-07-24T13:26:02.190Z,34.36
2018-07-24T13:27:17.170Z,34.29
2018-07-24T13:28:31.632Z,34.21
2018-07-24T13:29:46.125Z,34.15
2018-07-24T13:31:00.829Z,34.08
2018-07-24T13:32:15.421Z,34.04
2018-07-24T13:33:29.895Z,34.01
2018-07-24T13:34:44.836Z,34
2018-07-24T13:35:59.302Z,33.99
2018-07-24T13:37:14.319Z,33.97
2018-07-24T13:38:28.680Z,33.98
2018-07-24T13:39:43.637Z,34
2018-07-24T13:40:58.113Z,34.07
2018-07-24T13:42:12.617Z,34.16
2018-07-24T13:43:27.400Z,34.21
2018-07-24T13:44:42.191Z,34.25
2018-07-24T13:45:57.302Z,34.31
2018-07-24T13:47:12.728Z,34.31
2018-07-24T13:48:27.266Z,34.27
2018-07-24T13:49:41.747Z,34.22
2018-07-24T13:50:56.714Z,34.18
2018-07-24T13:52:11.689Z,34.12
2018-07-24T13:53:26.140Z,34.05
2018-07-24T13:54:40.597Z,34.01
2018-07-24T13:55:55.331Z,34.01
2018-07-24T13:57:09.776Z,34.02
2018-07-24T13:58:24.609Z,34.03
2018-07-24T13:59:39.349Z,34.04
2018-07-24T14:00:54.080Z,34.06
2018-07-24T14:02:08.817Z,34.1
2018-07-24T14:03:23.297Z,34.11
2018-07-24T14:04:38.027Z,34.12
2018-07-24T14:05:52.268Z,34.14
2018-07-24T14:07:06.751Z,34.16
2018-07-24T14:08:21.706Z,34.21
2018-07-24T14:09:36.364Z,34.22
2018-07-24T14:10:51.328Z,34.22
2018-07-24T14:12:06.275Z,34.25
2018-07-24T14:13:20.889Z,34.3
2018-07-24T14:14:35.316Z,34.32
2018-07-24T14:15:49.576Z,34.35
2018-07-24T14:17:04.021Z,34.35
2018-07-24T14:18:18.507Z,34.4
2018-07-24T14:19:33.283Z,34.46
2018-07-24T14:20:48.234Z,34.47
2018-07-24T14:22:03.510Z,34.47
2018-07-24T14:23:17.980Z,34.48
2018-07-24T14:24:33.061Z,34.5
2018-07-24T14:25:47.753Z,34.44
2018-07-24T14:27:01.709Z,34.38
2018-07-24T14:28:15.918Z,34.29
2018-07-24T14:29:30.386Z,34.28
2018-07-24T14:30:44.856Z,34.3
2018-07-24T14:31:59.316Z,34.34
2018-07-24T14:33:14.259Z,34.39
2018-07-24T14:34:29.051Z,34.42
2018-07-24T14:35:43.252Z,34.46
2018-07-24T14:36:57.886Z,34.48
2018-07-24T14:38:12.565Z,34.46
2018-07-24T14:39:27.403Z,34.45
2018-07-24T14:40:41.137Z,34.44
2018-07-24T14:41:55.628Z,34.44
2018-07-24T14:43:09.848Z,34.48
2018-07-24T14:44:24.243Z,34.5
2018-07-24T14:45:38.991Z,34.5
2018-07-24T14:46:53.460Z,34.5
2018-07-24T14:48:07.962Z,34.51
2018-07-24T14:49:22.965Z,34.52
2018-07-24T14:50:37.418Z,34.49
2018-07-24T14:51:52.140Z,34.44
2018-07-24T14:53:06.880Z,34.39
2018-07-24T14:54:21.603Z,34.38
2018-07-24T14:55:36.511Z,34.35
2018-07-24T14:56:51.220Z,34.35
2018-07-24T14:58:05.202Z,34.39
2018-07-24T14:59:20.180Z,34.46
2018-07-24T15:00:34.752Z,34.54
2018-07-24T15:01:49.468Z,34.65
2018-07-24T15:03:03.704Z,34.74
2018-07-24T15:04:17.924Z,34.8
2018-07-24T15:05:32.315Z,34.82
2018-07-24T15:06:46.770Z,34.87
2018-07-24T15:08:01.214Z,34.87
2018-07-24T15:09:16.160Z,34.85
2018-07-24T15:10:30.406Z,34.84
2018-07-24T15:11:44.856Z,34.85
2018-07-24T15:12:59.353Z,34.82
2018-07-24T15:14:13.957Z,34.81
2018-07-24T15:15:28.575Z,34.83
2018-07-24T15:16:43.056Z,34.84
2018-07-24T15:17:57.285Z,34.84
2018-07-24T15:19:11.790Z,34.84
2018-07-24T15:20:26.563Z,34.84
2018-07-24T15:21:41.749Z,34.88
2018-07-24T15:22:55.973Z,34.85
2018-07-24T15:24:10.983Z,34.84
2018-07-24T15:25:25.456Z,34.82
2018-07-24T15:26:40.305Z,34.82
2018-07-24T15:27:54.750Z,34.81
2018-07-24T15:29:09.745Z,34.8
2018-07-24T15:30:23.980Z,34.79
2018-07-24T15:31:38.986Z,34.79
2018-07-24T15:32:53.413Z,34.78
2018-07-24T15:34:08.253Z,34.75
2018-07-24T15:35:22.797Z,34.76
2018-07-24T15:36:36.953Z,34.77
2018-07-24T15:37:50.915Z,34.8
2018-07-24T15:39:05.154Z,34.81
2018-07-24T15:40:19.898Z,34.85
2018-07-24T15:41:34.126Z,34.88
2018-07-24T15:42:48.606Z,34.88
2018-07-24T15:44:03.064Z,34.88
2018-07-24T15:45:17.829Z,34.86
2018-07-24T15:46:32.321Z,34.88
2018-07-24T15:47:47.252Z,34.87
2018-07-24T15:49:01.965Z,34.85
2018-07-24T15:50:16.431Z,34.82
2018-07-24T15:51:31.259Z,34.83
2018-07-24T15:52:45.502Z,34.86
2018-07-24T15:53:59.719Z,34.9
2018-07-24T15:55:14.176Z,34.93
2018-07-24T15:56:29.274Z,34.95
2018-07-24T15:57:43.566Z,34.96
2018-07-24T15:58:58.741Z,35.03
2018-07-24T16:00:13.688Z,35.06
2018-07-24T16:01:27.934Z,35.07
2018-07-24T16:02:42.774Z,35.05
2018-07-24T16:03:57.525Z,35.02
2018-07-24T16:05:11.829Z,35
2018-07-24T16:06:26.578Z,35.01
2018-07-24T16:07:41.367Z,35.01
2018-07-24T16:08:55.628Z,35.02
2018-07-24T16:10:10.039Z,35.03
2018-07-24T16:11:24.512Z,35.05
2018-07-24T16:12:38.764Z,35.06
2018-07-24T16:13:53.198Z,35.09
2018-07-24T16:15:07.687Z,35.09
2018-07-24T16:16:22.267Z,35.12